ユジノサハリンスク の空港の天気 - METARとTAF

ホムトヴォ空港(ユジノサハリンスク) ( UHSS / UUS ) - ロシア ユジノサハリンスク
飛行場実況気象(Metar)
観測時間06/18 09:30 VLAT (06/17 23:30 UTC)
風向・風速西 5m/s
視程10km以上
天気現象
全天の4割程度の雲 雲底高度 1100m
気温14℃
湿度63%
気圧1006hPa
METARUHSS 172330Z 27005MPS 240V310 9999 SCT036CB 14/07 Q1006 R01/70D NOSIG RMK QFE753/1005
過去の天気等 Google飛行場航空写真 Wunderground天気予報

過去48時間のMETAR

飛行場予報(TAF)
発表時間: 6/18 09:00 VLAT (6/17 23:00 UTC)
予報対象時間: 18日10時 VLAT ~ 19日16時 VLAT
風向・風速西 3m/s
視程10km以上
全天の8割程度の積乱雲 雲底高度 910m
TAF UHSS 172300Z 1800/1906 27003MPS 9999 BKN030CB